createdAt,value
2023-04-19T00:00:02.570Z,7.55
2023-04-19T00:01:02.657Z,7.34
2023-04-19T00:02:02.833Z,7.70
2023-04-19T00:03:02.780Z,7.46
2023-04-19T00:04:02.894Z,7.58
2023-04-19T00:05:02.929Z,7.99
2023-04-19T00:06:02.681Z,7.94
2023-04-19T00:07:02.696Z,7.98
2023-04-19T00:08:02.691Z,7.82
2023-04-19T00:09:02.694Z,7.74
2023-04-19T00:10:02.697Z,8.15
2023-04-19T00:11:02.685Z,7.05
2023-04-19T00:12:02.706Z,7.99
2023-04-19T00:13:02.658Z,7.74
2023-04-19T00:14:02.679Z,8.47
2023-04-19T00:15:02.665Z,7.81
2023-04-19T00:16:02.686Z,8.96
2023-04-19T00:17:02.753Z,8.68
2023-04-19T00:18:02.764Z,8.57
2023-04-19T00:19:02.746Z,8.01
2023-04-19T00:20:02.737Z,8.20
2023-04-19T00:21:02.774Z,8.93
2023-04-19T00:22:02.851Z,9.91
2023-04-19T00:23:02.920Z,8.77
2023-04-19T00:24:02.949Z,7.98
2023-04-19T00:25:03.006Z,8.34
2023-04-19T00:26:03.023Z,8.75
2023-04-19T00:27:03.052Z,8.20
2023-04-19T00:28:03.063Z,9.26
2023-04-19T00:29:03.150Z,7.83
2023-04-19T00:30:03.197Z,8.62
2023-04-19T00:31:03.314Z,9.06
2023-04-19T00:32:03.279Z,8.80
2023-04-19T00:33:03.439Z,7.31
2023-04-19T00:34:03.341Z,8.17
2023-04-19T00:35:03.416Z,8.19
2023-04-19T00:36:03.486Z,8.57
2023-04-19T00:37:03.553Z,7.57
2023-04-19T00:38:03.597Z,8.21
2023-04-19T00:39:03.655Z,8.84
2023-04-19T00:40:03.693Z,9.46
2023-04-19T00:41:03.739Z,8.31
2023-04-19T00:42:03.737Z,8.11
2023-04-19T00:43:03.792Z,8.61
2023-04-19T00:44:03.863Z,8.27
2023-04-19T00:45:03.938Z,8.93
2023-04-19T00:46:04.045Z,9.05
2023-04-19T00:47:04.029Z,7.88
2023-04-19T00:48:04.141Z,8.26
2023-04-19T00:49:04.096Z,7.67
2023-04-19T00:50:04.103Z,8.04
2023-04-19T00:51:04.155Z,8.37
2023-04-19T00:52:04.119Z,7.84
2023-04-19T00:53:04.159Z,7.63
2023-04-19T00:54:04.224Z,8.44
2023-04-19T00:55:04.255Z,6.83
2023-04-19T00:56:04.289Z,8.44
2023-04-19T00:57:04.310Z,8.74
2023-04-19T00:58:04.297Z,8.04
2023-04-19T00:59:04.327Z,9.12
2023-04-19T01:00:04.345Z,8.11
2023-04-19T01:01:04.376Z,7.88
2023-04-19T01:02:04.384Z,8.73
2023-04-19T01:03:04.512Z,8.62
2023-04-19T01:04:04.592Z,7.72
2023-04-19T01:05:04.458Z,8.47
2023-04-19T01:06:04.470Z,8.31
2023-04-19T01:07:04.518Z,8.32
2023-04-19T01:08:04.557Z,7.92
2023-04-19T01:09:04.590Z,8.61
2023-04-19T01:10:04.652Z,8.03
2023-04-19T01:11:04.635Z,8.12
2023-04-19T01:12:04.708Z,8.19
2023-04-19T01:13:04.763Z,8.17
2023-04-19T01:14:04.844Z,8.02
2023-04-19T01:15:05.023Z,7.11
2023-04-19T01:16:05.053Z,7.55
2023-04-19T01:17:05.933Z,7.53
2023-04-19T01:18:05.151Z,8.14
2023-04-19T01:19:05.175Z,7.45
2023-04-19T01:20:05.199Z,7.35
2023-04-19T01:21:05.171Z,8.57
2023-04-19T01:22:05.178Z,8.01
2023-04-19T01:23:05.180Z,7.84
2023-04-19T01:24:05.192Z,7.77
2023-04-19T01:25:05.198Z,8.27
2023-04-19T01:26:05.228Z,7.55
2023-04-19T01:27:05.233Z,7.19
2023-04-19T01:28:05.225Z,7.46
2023-04-19T01:29:05.262Z,7.80
2023-04-19T01:30:05.260Z,7.12
2023-04-19T01:31:05.341Z,7.66
2023-04-19T01:32:05.318Z,7.21
2023-04-19T01:33:05.413Z,8.32
2023-04-19T01:34:05.444Z,7.79
2023-04-19T01:35:05.479Z,7.14
2023-04-19T01:36:05.521Z,8.22
2023-04-19T01:37:05.574Z,8.11
2023-04-19T01:38:05.601Z,8.08
2023-04-19T01:39:05.666Z,8.67
2023-04-19T01:40:05.713Z,8.82
2023-04-19T01:41:05.726Z,8.48
2023-04-19T01:42:05.785Z,7.54
2023-04-19T01:43:05.811Z,7.56
2023-04-19T01:44:05.830Z,8.12
2023-04-19T01:45:05.850Z,8.15
2023-04-19T01:46:05.851Z,8.76
2023-04-19T01:47:06.006Z,8.36
2023-04-19T01:48:06.496Z,8.25
2023-04-19T01:49:05.979Z,8.80
2023-04-19T01:50:06.016Z,8.73
2023-04-19T01:51:06.123Z,8.71
2023-04-19T01:52:06.094Z,8.50
2023-04-19T01:53:06.119Z,7.97
2023-04-19T01:54:06.158Z,7.64
2023-04-19T01:55:06.234Z,8.25
2023-04-19T01:56:06.316Z,8.59
2023-04-19T01:57:06.366Z,7.92
2023-04-19T01:58:06.401Z,7.87
2023-04-19T01:59:06.440Z,8.75
2023-04-19T02:00:06.480Z,8.57
2023-04-19T02:01:06.574Z,10.10
2023-04-19T02:02:06.578Z,11.56
2023-04-19T02:03:06.584Z,11.80
2023-04-19T02:04:06.618Z,12.90
2023-04-19T02:05:06.622Z,11.42
2023-04-19T02:06:06.691Z,10.75
2023-04-19T02:07:06.727Z,9.51
2023-04-19T02:08:06.732Z,10.36
2023-04-19T02:09:06.764Z,11.17
2023-04-19T02:10:06.867Z,11.56
2023-04-19T02:11:06.968Z,10.71
2023-04-19T02:12:07.194Z,10.79
2023-04-19T02:13:07.220Z,10.31
2023-04-19T02:14:07.181Z,9.83
2023-04-19T02:15:07.290Z,9.22
2023-04-19T02:16:07.457Z,8.30
2023-04-19T02:17:07.493Z,8.94
2023-04-19T02:18:08.168Z,8.47
2023-04-19T02:19:07.492Z,8.44
2023-04-19T02:20:07.549Z,8.61
2023-04-19T02:21:07.608Z,9.04
2023-04-19T02:22:07.653Z,8.01
2023-04-19T02:23:07.729Z,8.43
2023-04-19T02:24:07.741Z,8.45
2023-04-19T02:25:07.749Z,7.51
2023-04-19T02:26:07.744Z,8.18
2023-04-19T02:27:07.749Z,8.93
2023-04-19T02:28:07.768Z,9.56
2023-04-19T02:29:07.786Z,12.32
2023-04-19T02:30:07.859Z,15.75
2023-04-19T02:31:07.873Z,17.18
2023-04-19T02:32:07.909Z,15.11
2023-04-19T02:33:07.914Z,17.51
2023-04-19T02:34:07.927Z,18.36
2023-04-19T02:35:07.981Z,14.56
2023-04-19T02:36:07.968Z,15.91
2023-04-19T02:37:07.992Z,16.71
2023-04-19T02:38:08.001Z,15.09
2023-04-19T02:39:08.011Z,17.60
2023-04-19T02:40:08.032Z,11.22
2023-04-19T02:41:08.010Z,10.82
2023-04-19T02:42:08.043Z,11.29
2023-04-19T02:43:08.080Z,11.18
2023-04-19T02:44:08.152Z,13.80
2023-04-19T02:45:08.241Z,10.11
2023-04-19T02:46:08.311Z,12.43
2023-04-19T02:47:08.321Z,14.91
2023-04-19T02:48:08.383Z,14.42
2023-04-19T02:49:08.408Z,12.16
2023-04-19T02:50:08.466Z,15.92
2023-04-19T02:51:08.633Z,14.53
2023-04-19T02:52:08.572Z,13.51
2023-04-19T02:53:08.605Z,11.53
2023-04-19T02:54:08.653Z,11.46
2023-04-19T02:55:08.650Z,12.50
2023-04-19T02:56:08.681Z,10.04
2023-04-19T02:57:08.682Z,13.15
2023-04-19T02:58:08.742Z,11.66
2023-04-19T02:59:08.788Z,12.08
2023-04-19T03:00:08.881Z,10.80
2023-04-19T03:01:08.886Z,11.86
2023-04-19T03:02:08.888Z,11.25
2023-04-19T03:03:09.021Z,11.27
2023-04-19T03:04:09.074Z,8.88
2023-04-19T03:05:08.964Z,11.07
2023-04-19T03:06:09.068Z,9.76
2023-04-19T03:07:09.072Z,8.80
2023-04-19T03:08:09.106Z,9.48
2023-04-19T03:09:09.131Z,11.37
2023-04-19T03:10:09.152Z,10.45
2023-04-19T03:11:09.175Z,9.48
2023-04-19T03:12:09.243Z,8.37
2023-04-19T03:13:09.306Z,11.03
2023-04-19T03:14:09.321Z,10.62
2023-04-19T03:15:09.379Z,11.57
2023-04-19T03:16:09.494Z,8.85
2023-04-19T03:17:09.433Z,7.80
2023-04-19T03:18:09.492Z,8.70
2023-04-19T03:19:09.558Z,8.81
2023-04-19T03:20:09.599Z,8.48
2023-04-19T03:21:09.718Z,10.52
2023-04-19T03:22:09.719Z,9.78
2023-04-19T03:23:09.814Z,8.01
2023-04-19T03:24:09.847Z,7.79
2023-04-19T03:25:09.846Z,9.47
2023-04-19T03:26:09.884Z,8.80
2023-04-19T03:27:09.888Z,8.26
2023-04-19T03:28:09.912Z,9.32
2023-04-19T03:29:09.926Z,9.16
2023-04-19T03:30:09.952Z,8.92
2023-04-19T03:31:09.986Z,9.29
2023-04-19T03:32:10.008Z,9.72
2023-04-19T03:33:10.084Z,8.90
2023-04-19T03:34:10.058Z,9.33
2023-04-19T03:35:10.026Z,9.11
2023-04-19T03:36:10.044Z,8.91
2023-04-19T03:37:10.068Z,8.21
2023-04-19T03:38:10.076Z,9.32
2023-04-19T03:39:10.072Z,8.95
2023-04-19T03:40:10.074Z,9.02
2023-04-19T03:41:10.105Z,8.83
2023-04-19T03:42:10.110Z,9.38
2023-04-19T03:43:10.137Z,8.17
2023-04-19T03:44:10.144Z,8.12
2023-04-19T03:45:10.150Z,9.14
2023-04-19T03:46:10.247Z,7.99
2023-04-19T03:47:10.180Z,8.10
2023-04-19T03:48:10.228Z,9.41
2023-04-19T03:49:10.202Z,8.85
2023-04-19T03:50:10.200Z,8.16
2023-04-19T03:51:10.233Z,9.23
2023-04-19T03:52:10.273Z,8.50
2023-04-19T03:53:10.292Z,8.20
2023-04-19T03:54:10.359Z,8.95
2023-04-19T03:55:10.331Z,9.82
2023-04-19T03:56:10.334Z,8.89
2023-04-19T03:57:10.349Z,8.55
2023-04-19T03:58:10.351Z,8.81
2023-04-19T03:59:10.372Z,8.40
2023-04-19T04:00:10.374Z,8.99
2023-04-19T04:01:10.373Z,8.43
2023-04-19T04:02:10.455Z,7.96
2023-04-19T04:03:10.517Z,8.33
2023-04-19T04:04:10.517Z,8.26
2023-04-19T04:05:10.505Z,8.22
2023-04-19T04:06:10.406Z,8.41
2023-04-19T04:07:10.412Z,8.52
2023-04-19T04:08:10.440Z,7.82
2023-04-19T04:09:10.489Z,7.80
2023-04-19T04:10:10.529Z,7.25
2023-04-19T04:11:10.604Z,8.34
2023-04-19T04:12:10.662Z,8.83
2023-04-19T04:13:10.715Z,8.19
2023-04-19T04:14:10.783Z,8.56
2023-04-19T04:15:10.769Z,7.89
2023-04-19T04:16:10.820Z,8.59
2023-04-19T04:17:10.786Z,8.28
2023-04-19T04:18:10.828Z,7.75
2023-04-19T04:19:10.826Z,20.45
2023-04-19T04:20:10.838Z,8.85
2023-04-19T04:21:10.830Z,8.90
2023-04-19T04:22:10.832Z,8.44
2023-04-19T04:23:10.861Z,9.30
2023-04-19T04:24:10.864Z,9.89
2023-04-19T04:25:10.908Z,9.48
2023-04-19T04:26:10.931Z,11.07
2023-04-19T04:27:10.970Z,10.81
2023-04-19T04:28:11.035Z,10.69
2023-04-19T04:29:11.056Z,10.71
2023-04-19T04:30:11.057Z,10.86
2023-04-19T04:31:11.124Z,11.22
2023-04-19T04:32:11.352Z,11.45
2023-04-19T04:33:11.196Z,10.52
2023-04-19T04:34:11.272Z,10.68
2023-04-19T04:35:11.351Z,10.46
2023-04-19T04:36:11.356Z,11.52
2023-04-19T04:37:11.399Z,10.50
2023-04-19T04:38:23.609Z,9.60
2023-04-19T04:39:12.435Z,9.85
2023-04-19T04:40:11.451Z,10.31
2023-04-19T04:41:11.419Z,9.61
2023-04-19T04:42:11.430Z,11.13
2023-04-19T04:43:11.521Z,12.30
2023-04-19T04:44:13.103Z,10.81
2023-04-19T04:45:11.439Z,9.37
2023-04-19T04:46:11.467Z,10.23
2023-04-19T04:47:11.424Z,11.37
2023-04-19T04:48:11.425Z,11.90
2023-04-19T04:49:11.487Z,9.85
2023-04-19T04:50:11.477Z,10.00
2023-04-19T04:51:11.475Z,9.90
2023-04-19T04:52:11.481Z,10.20
2023-04-19T04:53:12.948Z,11.40
2023-04-19T04:54:11.489Z,10.04
2023-04-19T04:55:11.495Z,9.34
2023-04-19T04:56:11.479Z,10.07
2023-04-19T04:57:11.463Z,10.46
2023-04-19T04:58:11.561Z,8.91
2023-04-19T04:59:11.692Z,8.55
2023-04-19T05:00:11.689Z,8.54
2023-04-19T05:01:11.735Z,8.89
2023-04-19T05:02:11.799Z,9.97
2023-04-19T05:03:12.030Z,10.52
2023-04-19T05:04:11.985Z,9.14
2023-04-19T05:05:11.988Z,10.76
2023-04-19T05:06:12.029Z,8.97
2023-04-19T05:07:12.022Z,10.09
2023-04-19T05:08:12.023Z,9.60
2023-04-19T05:09:12.026Z,12.62
2023-04-19T05:10:12.034Z,12.40
2023-04-19T05:11:12.043Z,10.69
2023-04-19T05:12:12.019Z,10.15
2023-04-19T05:13:12.034Z,11.52
2023-04-19T05:14:12.061Z,11.58
2023-04-19T05:15:12.080Z,11.08
2023-04-19T05:16:12.062Z,11.97
2023-04-19T05:17:12.141Z,12.13
2023-04-19T05:18:12.183Z,12.01
2023-04-19T05:19:12.183Z,10.85
2023-04-19T05:20:12.201Z,8.73
2023-04-19T05:21:12.185Z,9.47
2023-04-19T05:22:12.182Z,10.14
2023-04-19T05:23:12.196Z,8.61
2023-04-19T05:24:12.193Z,9.02
2023-04-19T05:25:12.225Z,8.83
2023-04-19T05:26:12.192Z,9.56
2023-04-19T05:27:12.187Z,8.99
2023-04-19T05:28:12.200Z,10.76
2023-04-19T05:29:12.198Z,10.74
2023-04-19T05:30:12.233Z,10.35
2023-04-19T05:31:12.312Z,9.63
2023-04-19T05:32:12.357Z,11.31
2023-04-19T05:33:12.395Z,9.32
2023-04-19T05:34:12.487Z,9.12
2023-04-19T05:35:12.442Z,9.40
2023-04-19T05:36:12.479Z,9.30
2023-04-19T05:37:12.504Z,9.65
2023-04-19T05:38:12.524Z,9.65
2023-04-19T05:39:12.633Z,9.77
2023-04-19T05:40:14.549Z,9.05
2023-04-19T05:41:12.652Z,10.74
2023-04-19T05:42:12.612Z,10.42
2023-04-19T05:43:12.624Z,10.75
2023-04-19T05:44:12.697Z,11.81
2023-04-19T05:45:12.635Z,12.68
2023-04-19T05:46:12.917Z,9.18
2023-04-19T05:47:12.674Z,8.89
2023-04-19T05:48:12.675Z,8.36
2023-04-19T05:49:13.498Z,8.24
2023-04-19T05:50:12.695Z,9.56
2023-04-19T05:51:12.752Z,8.72
2023-04-19T05:52:13.501Z,9.45
2023-04-19T05:53:12.717Z,9.06
2023-04-19T05:54:12.886Z,8.73
2023-04-19T05:55:12.860Z,8.95
2023-04-19T05:56:12.879Z,9.14
2023-04-19T05:57:12.900Z,9.69
2023-04-19T05:58:12.912Z,8.98
2023-04-19T05:59:12.942Z,9.30
2023-04-19T06:00:12.951Z,9.82
2023-04-19T06:01:12.977Z,8.19
2023-04-19T06:02:13.102Z,9.46
2023-04-19T06:03:13.217Z,10.24
2023-04-19T06:04:13.410Z,10.27
2023-04-19T06:05:13.167Z,8.20
2023-04-19T06:06:13.171Z,9.70
2023-04-19T06:07:22.270Z,10.46
2023-04-19T06:08:14.131Z,9.49
2023-04-19T06:09:13.116Z,10.04
2023-04-19T06:10:13.112Z,11.05
2023-04-19T06:11:23.262Z,9.88
2023-04-19T06:12:14.126Z,9.69
2023-04-19T06:13:13.190Z,10.89
2023-04-19T06:14:13.120Z,12.23
2023-04-19T06:15:13.261Z,9.26
2023-04-19T06:16:13.122Z,9.34
2023-04-19T06:17:13.116Z,9.36
2023-04-19T06:18:19.022Z,10.09
2023-04-19T06:19:14.085Z,9.99
2023-04-19T06:20:13.112Z,10.36
2023-04-19T06:21:13.101Z,10.12
2023-04-19T06:22:13.101Z,10.21
2023-04-19T06:23:13.085Z,9.24
2023-04-19T06:24:13.291Z,11.03
2023-04-19T06:25:13.062Z,10.86
2023-04-19T06:26:13.086Z,10.80
2023-04-19T06:27:14.010Z,11.35
2023-04-19T06:28:13.058Z,11.36
2023-04-19T06:29:13.033Z,10.47
2023-04-19T06:30:13.015Z,10.55
2023-04-19T06:31:13.538Z,9.83
2023-04-19T06:32:12.979Z,8.97
2023-04-19T06:33:13.002Z,8.97
2023-04-19T06:34:13.025Z,10.32
2023-04-19T06:35:13.164Z,10.84
2023-04-19T06:36:13.069Z,9.74
2023-04-19T06:37:13.084Z,10.37
2023-04-19T06:38:13.103Z,10.21
2023-04-19T06:39:13.117Z,10.77
2023-04-19T06:40:13.278Z,10.83
2023-04-19T06:41:13.256Z,9.25
2023-04-19T06:42:13.236Z,8.90
2023-04-19T06:43:13.146Z,8.77
2023-04-19T06:44:13.194Z,9.17
2023-04-19T06:45:13.260Z,7.35
2023-04-19T06:46:13.236Z,8.65
2023-04-19T06:47:13.211Z,7.77
2023-04-19T06:48:13.568Z,8.30
2023-04-19T06:49:13.297Z,7.74
2023-04-19T06:50:13.309Z,8.01
2023-04-19T06:51:13.449Z,8.02
2023-04-19T06:52:13.323Z,7.04
2023-04-19T06:53:13.322Z,6.84
2023-04-19T06:54:13.289Z,8.69
2023-04-19T06:55:13.517Z,8.20
2023-04-19T06:56:13.291Z,8.17
2023-04-19T06:57:13.313Z,7.21
2023-04-19T06:58:13.249Z,7.22
2023-04-19T06:59:13.221Z,7.25
2023-04-19T07:00:13.252Z,7.15
2023-04-19T07:01:13.247Z,7.29
2023-04-19T07:02:14.136Z,7.25
2023-04-19T07:03:13.268Z,8.10
2023-04-19T07:04:13.371Z,8.11
2023-04-19T07:05:13.142Z,9.01
2023-04-19T07:06:13.101Z,7.65
2023-04-19T07:07:13.184Z,7.83
2023-04-19T07:08:13.063Z,12.06
2023-04-19T07:09:13.058Z,11.74
2023-04-19T07:10:13.094Z,8.36
2023-04-19T07:11:13.031Z,7.66
2023-04-19T07:12:13.056Z,8.05
2023-04-19T07:13:13.229Z,8.04
2023-04-19T07:14:12.995Z,12.12
2023-04-19T07:15:13.065Z,11.12
2023-04-19T07:16:13.016Z,9.93
2023-04-19T07:17:12.963Z,7.34
2023-04-19T07:18:13.056Z,10.76
2023-04-19T07:19:12.953Z,17.22
2023-04-19T07:20:13.057Z,8.28
2023-04-19T07:21:13.083Z,7.60
2023-04-19T07:22:14.741Z,6.79
2023-04-19T07:23:13.027Z,7.52
2023-04-19T07:24:13.096Z,7.88
2023-04-19T07:25:13.350Z,9.44
2023-04-19T07:26:13.119Z,7.85
2023-04-19T07:27:13.031Z,7.67
2023-04-19T07:28:13.017Z,7.07
2023-04-19T07:29:13.001Z,6.96
2023-04-19T07:30:12.998Z,6.74
2023-04-19T07:31:13.007Z,6.42
2023-04-19T07:32:12.977Z,7.04
2023-04-19T07:33:13.021Z,7.18
2023-04-19T07:34:12.935Z,7.01
2023-04-19T07:35:12.939Z,6.49
2023-04-19T07:36:12.952Z,7.49
2023-04-19T07:37:12.922Z,6.24
2023-04-19T07:38:13.009Z,6.76
2023-04-19T07:39:12.905Z,7.64
2023-04-19T07:40:12.888Z,7.09
2023-04-19T07:41:13.504Z,7.03
2023-04-19T07:42:12.886Z,6.98
2023-04-19T07:43:12.832Z,6.27
2023-04-19T07:44:12.790Z,6.72
2023-04-19T07:45:13.086Z,6.98
2023-04-19T07:46:13.515Z,6.10
2023-04-19T07:47:12.693Z,6.67
2023-04-19T07:48:12.704Z,7.24
2023-04-19T07:49:12.673Z,6.59
2023-04-19T07:50:12.670Z,7.63
2023-04-19T07:51:12.634Z,7.14
2023-04-19T07:52:12.587Z,7.67
2023-04-19T07:53:12.563Z,6.12
2023-04-19T07:54:12.632Z,7.05
2023-04-19T07:55:12.536Z,7.30
2023-04-19T07:56:13.151Z,6.85
2023-04-19T07:57:12.470Z,7.10
2023-04-19T07:58:12.527Z,7.19
2023-04-19T07:59:12.466Z,7.48
2023-04-19T08:00:12.411Z,6.94
2023-04-19T08:01:12.444Z,7.18
2023-04-19T08:02:12.494Z,7.67
2023-04-19T08:03:12.547Z,8.16
2023-04-19T08:04:12.606Z,7.30
2023-04-19T08:05:13.117Z,7.31
2023-04-19T08:06:12.388Z,6.77
2023-04-19T08:07:13.056Z,7.22
2023-04-19T08:08:13.504Z,6.63
2023-04-19T08:09:12.595Z,6.19
2023-04-19T08:10:12.696Z,6.87
2023-04-19T08:11:12.623Z,6.61
2023-04-19T08:12:17.195Z,7.19
2023-04-19T08:13:13.645Z,6.57
2023-04-19T08:14:22.298Z,7.87
2023-04-19T08:15:29.337Z,7.35
2023-04-19T08:16:51.771Z,7.92
2023-04-19T08:18:13.555Z,6.68
2023-04-19T08:19:12.556Z,7.10
2023-04-19T08:20:12.525Z,6.28
2023-04-19T08:21:12.468Z,6.74
2023-04-19T08:22:12.486Z,7.11
2023-04-19T08:23:22.247Z,6.67
2023-04-19T08:24:13.390Z,7.49
2023-04-19T08:25:12.463Z,8.07
2023-04-19T08:26:12.348Z,6.78
2023-04-19T08:27:12.437Z,6.26
2023-04-19T08:28:12.239Z,7.66
2023-04-19T08:29:12.257Z,6.86
2023-04-19T08:30:12.394Z,6.40
2023-04-19T08:31:12.189Z,7.09
2023-04-19T08:32:13.011Z,7.40
2023-04-19T08:33:12.153Z,7.44
2023-04-19T08:34:12.201Z,8.20
2023-04-19T08:35:12.115Z,6.95
2023-04-19T08:36:13.782Z,6.32
2023-04-19T08:37:12.081Z,6.71
2023-04-19T08:38:12.049Z,7.18
2023-04-19T08:39:24.604Z,7.42
2023-04-19T08:40:13.030Z,6.67
2023-04-19T08:41:12.022Z,6.18
2023-04-19T08:42:24.675Z,6.96
2023-04-19T08:43:12.938Z,6.17
2023-04-19T08:44:11.945Z,6.07
2023-04-19T08:45:27.036Z,6.58
2023-04-19T08:46:13.571Z,6.16
2023-04-19T08:47:20.240Z,5.88
2023-04-19T08:48:12.077Z,6.61
2023-04-19T08:49:12.067Z,6.17
2023-04-19T08:51:12.980Z,5.88
2023-04-19T08:52:11.921Z,6.30
2023-04-19T08:53:23.954Z,6.14
2023-04-19T08:54:12.871Z,6.06
2023-04-19T08:55:11.880Z,6.43
2023-04-19T08:56:18.155Z,6.13
2023-04-19T08:57:12.864Z,5.88
2023-04-19T08:58:15.358Z,4.97
2023-04-19T08:59:18.500Z,6.72
2023-04-19T09:00:12.734Z,6.88
2023-04-19T09:01:19.920Z,6.96
2023-04-19T09:02:12.811Z,6.04
2023-04-19T09:03:11.917Z,5.09
2023-04-19T09:05:12.728Z,6.19
2023-04-19T09:06:11.765Z,5.34
2023-04-19T09:07:11.578Z,4.86
2023-04-19T09:08:13.385Z,5.52
2023-04-19T09:09:16.928Z,5.62
2023-04-19T09:10:12.516Z,5.54
2023-04-19T09:11:11.469Z,6.29
2023-04-19T09:12:11.641Z,5.71
2023-04-19T09:13:11.434Z,7.09
2023-04-19T09:14:11.374Z,5.80
2023-04-19T09:15:11.375Z,6.47
2023-04-19T09:16:11.387Z,6.25
2023-04-19T09:17:11.620Z,6.72
2023-04-19T09:18:12.042Z,6.56
2023-04-19T09:19:22.258Z,6.27
2023-04-19T09:20:12.216Z,6.12
2023-04-19T09:21:11.183Z,7.31
2023-04-19T09:22:11.179Z,5.90
2023-04-19T09:23:11.164Z,6.30
2023-04-19T09:24:11.078Z,6.50
2023-04-19T09:27:11.052Z,7.15
2023-04-19T09:28:11.004Z,7.05
2023-04-19T09:29:12.138Z,6.94
2023-04-19T09:30:20.777Z,7.60
2023-04-19T09:31:33.307Z,6.89
2023-04-19T09:32:12.146Z,6.60
2023-04-19T09:33:11.152Z,7.17
2023-04-19T09:34:11.028Z,6.34
2023-04-19T09:35:10.994Z,7.10
2023-04-19T09:36:12.244Z,6.75
2023-04-19T09:37:17.290Z,6.93
2023-04-19T09:38:11.930Z,6.83
2023-04-19T09:39:10.968Z,6.69
2023-04-19T09:40:10.926Z,7.44
2023-04-19T09:41:10.857Z,6.48
2023-04-19T09:42:10.799Z,6.80
2023-04-19T09:45:28.544Z,6.85
2023-04-19T09:46:11.663Z,6.89
2023-04-19T09:47:10.702Z,7.12
2023-04-19T09:48:11.607Z,6.73
2023-04-19T09:49:19.970Z,5.85
2023-04-19T09:50:22.879Z,5.46
2023-04-19T09:51:14.452Z,6.16
2023-04-19T09:52:10.392Z,6.26
2023-04-19T09:53:10.372Z,5.57
2023-04-19T09:54:10.307Z,6.52
2023-04-19T09:55:22.172Z,6.38
2023-04-19T09:56:11.577Z,5.82
2023-04-19T09:57:10.182Z,6.17
2023-04-19T09:58:10.111Z,6.47
2023-04-19T09:59:20.390Z,6.69
2023-04-19T10:00:11.028Z,6.77
2023-04-19T10:01:14.844Z,6.57
2023-04-19T10:02:11.044Z,6.54
2023-04-19T10:03:10.015Z,7.35
2023-04-19T10:04:23.769Z,6.63
2023-04-19T10:05:20.566Z,6.88
2023-04-19T10:06:15.608Z,5.96
2023-04-19T10:08:10.810Z,6.23
2023-04-19T10:09:09.654Z,5.42
2023-04-19T10:10:19.654Z,4.57
2023-04-19T10:11:10.579Z,5.64
2023-04-19T10:13:19.037Z,5.70
2023-04-19T10:14:10.549Z,5.59
2023-04-19T10:15:09.460Z,6.00
2023-04-19T10:16:18.928Z,5.96
2023-04-19T10:17:10.313Z,6.44
2023-04-19T10:18:09.257Z,6.13
2023-04-19T10:19:10.178Z,6.15
2023-04-19T10:20:09.193Z,6.91
2023-04-19T10:21:09.126Z,6.37
2023-04-19T10:22:09.028Z,5.65
2023-04-19T10:23:09.269Z,5.71
2023-04-19T10:24:08.954Z,5.53
2023-04-19T10:25:09.628Z,5.84
2023-04-19T10:26:08.861Z,5.14
2023-04-19T10:27:09.548Z,5.78
2023-04-19T10:28:08.769Z,6.16
2023-04-19T10:29:08.728Z,6.46
2023-04-19T10:30:08.699Z,6.02
2023-04-19T10:31:09.555Z,6.27
2023-04-19T10:32:08.622Z,7.24
2023-04-19T10:33:08.533Z,5.32
2023-04-19T10:34:08.465Z,5.82
2023-04-19T10:35:08.633Z,5.56
2023-04-19T10:36:08.432Z,6.05
2023-04-19T10:37:08.367Z,6.32
2023-04-19T10:38:09.047Z,6.06
2023-04-19T10:39:09.283Z,5.84
2023-04-19T10:40:08.373Z,6.90
2023-04-19T10:41:08.334Z,6.02
2023-04-19T10:42:08.318Z,5.68
2023-04-19T10:43:08.309Z,5.27
2023-04-19T10:44:08.282Z,6.06
2023-04-19T10:45:08.246Z,6.17
2023-04-19T10:46:09.126Z,5.30
2023-04-19T10:47:08.672Z,6.47
2023-04-19T10:48:09.037Z,5.66
2023-04-19T10:49:08.406Z,5.71
2023-04-19T10:50:08.190Z,5.76
2023-04-19T10:51:09.044Z,5.16
2023-04-19T10:52:08.155Z,5.95
2023-04-19T10:53:08.156Z,5.70
2023-04-19T10:54:08.167Z,5.45
2023-04-19T10:55:08.122Z,5.79
2023-04-19T10:56:08.127Z,5.72
2023-04-19T10:57:08.127Z,6.05
2023-04-19T10:58:08.133Z,5.85
2023-04-19T10:59:08.344Z,5.30
2023-04-19T11:00:08.136Z,5.61
2023-04-19T11:01:08.324Z,5.48
2023-04-19T11:02:09.098Z,5.24
2023-04-19T11:03:08.302Z,4.79
2023-04-19T11:04:08.347Z,5.11
2023-04-19T11:05:08.278Z,4.83
2023-04-19T11:06:08.325Z,5.41
2023-04-19T11:07:08.205Z,5.10
2023-04-19T11:08:08.162Z,5.82
2023-04-19T11:09:09.064Z,5.43
2023-04-19T11:10:08.086Z,5.52
2023-04-19T11:11:08.030Z,4.97
2023-04-19T11:12:08.110Z,4.88
2023-04-19T11:13:07.919Z,5.51
2023-04-19T11:14:08.555Z,5.58
2023-04-19T11:15:10.569Z,5.43
2023-04-19T11:16:07.992Z,5.77
2023-04-19T11:17:08.049Z,5.50
2023-04-19T11:18:12.800Z,8.07
2023-04-19T11:19:08.740Z,4.94
2023-04-19T11:20:07.796Z,5.22
2023-04-19T11:21:08.571Z,5.62
2023-04-19T11:22:08.233Z,5.80
2023-04-19T11:23:07.794Z,5.07
2023-04-19T11:24:07.671Z,5.19
2023-04-19T11:25:07.688Z,5.26
2023-04-19T11:26:07.650Z,5.11
2023-04-19T11:27:07.459Z,5.92
2023-04-19T11:28:07.449Z,6.61
2023-04-19T11:29:07.393Z,5.83
2023-04-19T11:30:07.427Z,5.17
2023-04-19T11:31:07.403Z,4.76
2023-04-19T11:32:07.351Z,6.10
2023-04-19T11:33:07.339Z,5.01
2023-04-19T11:34:07.281Z,4.52
2023-04-19T11:35:07.217Z,5.41
2023-04-19T11:36:08.073Z,5.35
2023-04-19T11:37:07.128Z,5.52
2023-04-19T11:38:07.122Z,4.07
2023-04-19T11:39:07.130Z,4.37
2023-04-19T11:40:08.485Z,5.08
2023-04-19T11:41:09.548Z,5.74
2023-04-19T11:42:06.918Z,5.14
2023-04-19T11:43:06.998Z,5.52
2023-04-19T11:44:07.684Z,4.07
2023-04-19T11:45:13.229Z,4.40
2023-04-19T11:46:07.911Z,4.47
2023-04-19T11:47:06.802Z,4.44
2023-04-19T11:48:06.801Z,4.80
2023-04-19T11:49:06.695Z,3.89
2023-04-19T11:50:06.698Z,4.28
2023-04-19T11:51:06.693Z,3.26
2023-04-19T11:52:06.739Z,4.90
2023-04-19T11:53:08.036Z,3.84
2023-04-19T11:54:07.094Z,4.38
2023-04-19T11:55:06.820Z,4.14
2023-04-19T11:56:06.527Z,3.63
2023-04-19T11:57:06.752Z,3.77
2023-04-19T11:58:07.106Z,3.33
2023-04-19T11:59:06.389Z,3.97
2023-04-19T12:00:06.395Z,3.38
2023-04-19T12:01:06.799Z,3.65
2023-04-19T12:02:06.346Z,3.54
2023-04-19T12:03:06.498Z,3.73
2023-04-19T12:04:06.396Z,3.86
2023-04-19T12:05:06.636Z,3.75
2023-04-19T12:06:06.385Z,3.95
2023-04-19T12:07:06.242Z,3.66
2023-04-19T12:08:07.083Z,3.84
2023-04-19T12:09:06.152Z,4.06
2023-04-19T12:10:06.277Z,3.64
2023-04-19T12:11:06.093Z,4.25
2023-04-19T12:12:06.108Z,4.23
2023-04-19T12:13:06.701Z,4.10
2023-04-19T12:14:06.121Z,3.70
2023-04-19T12:15:06.586Z,4.15
2023-04-19T12:16:06.080Z,3.66
2023-04-19T12:17:06.254Z,4.13
2023-04-19T12:18:06.178Z,4.80
2023-04-19T12:19:07.112Z,4.21
2023-04-19T12:20:06.266Z,4.02
2023-04-19T12:21:06.276Z,3.71
2023-04-19T12:22:06.720Z,3.97
2023-04-19T12:23:06.268Z,4.07
2023-04-19T12:24:06.285Z,5.00
2023-04-19T12:25:07.064Z,4.96
2023-04-19T12:26:06.338Z,4.04
2023-04-19T12:27:06.326Z,4.29
2023-04-19T12:28:06.370Z,4.29
2023-04-19T12:29:06.327Z,4.26
2023-04-19T12:30:13.119Z,4.14
2023-04-19T12:31:06.429Z,3.75
2023-04-19T12:32:06.343Z,4.06
2023-04-19T12:33:06.347Z,3.85
2023-04-19T12:34:06.197Z,3.70
2023-04-19T12:35:06.076Z,3.74
2023-04-19T12:36:06.021Z,3.98
2023-04-19T12:37:05.975Z,3.95
2023-04-19T12:38:05.937Z,3.91
2023-04-19T12:39:05.822Z,3.86
2023-04-19T12:40:05.768Z,3.73
2023-04-19T12:41:06.600Z,3.98
2023-04-19T12:42:06.172Z,3.80
2023-04-19T12:43:05.568Z,3.83
2023-04-19T12:44:05.502Z,4.09
2023-04-19T12:45:05.449Z,3.43
2023-04-19T12:46:05.424Z,3.82
2023-04-19T12:47:05.347Z,3.72
2023-04-19T12:48:05.430Z,3.25
2023-04-19T12:49:05.370Z,3.26
2023-04-19T12:50:05.328Z,3.79
2023-04-19T12:51:05.246Z,3.76
2023-04-19T12:52:05.609Z,3.79
2023-04-19T12:53:05.137Z,3.20
2023-04-19T12:54:05.093Z,3.07
2023-04-19T12:55:05.008Z,2.77
2023-04-19T12:56:04.939Z,2.60
2023-04-19T12:57:04.896Z,2.68
2023-04-19T12:58:04.873Z,1.95
2023-04-19T12:59:04.750Z,3.01
2023-04-19T13:00:04.698Z,2.80
2023-04-19T13:01:04.657Z,2.68
2023-04-19T13:02:04.660Z,3.19
2023-04-19T13:03:04.569Z,3.24
2023-04-19T13:04:04.530Z,2.96
2023-04-19T13:05:05.153Z,3.54
2023-04-19T13:06:04.251Z,5.60
2023-04-19T13:07:04.197Z,3.77
2023-04-19T13:08:04.135Z,2.88
2023-04-19T13:10:03.999Z,3.13
2023-04-19T13:11:03.922Z,3.09
2023-04-19T13:12:03.830Z,3.45
2023-04-19T13:13:03.762Z,3.05
2023-04-19T13:14:03.732Z,3.74
2023-04-19T13:15:04.833Z,2.30
2023-04-19T13:16:03.620Z,2.34
2023-04-19T13:17:03.474Z,3.04
2023-04-19T13:18:03.595Z,2.65
2023-04-19T13:19:03.358Z,2.29
2023-04-19T13:20:03.274Z,2.45
2023-04-19T13:21:03.260Z,2.66
2023-04-19T13:22:03.165Z,2.80
2023-04-19T13:23:03.092Z,2.93
2023-04-19T13:24:03.048Z,2.83